createdAt,value
2018-04-16T00:00:56.256Z,1.77
2018-04-16T00:03:23.773Z,2.33
2018-04-16T00:05:52.100Z,2.10
2018-04-16T00:08:19.611Z,2.60
2018-04-16T00:10:47.143Z,2.63
2018-04-16T00:13:14.668Z,1.93
2018-04-16T00:15:42.210Z,2.60
2018-04-16T00:18:09.724Z,2.50
2018-04-16T00:20:37.280Z,2.50
2018-04-16T00:23:04.788Z,2.30
2018-04-16T00:25:32.300Z,3.07
2018-04-16T00:27:59.840Z,2.40
2018-04-16T00:30:27.358Z,3.57
2018-04-16T00:33:00.679Z,3.13
2018-04-16T00:35:33.788Z,3.27
2018-04-16T00:38:06.996Z,3.10
2018-04-16T00:40:41.724Z,3.00
2018-04-16T00:43:14.937Z,3.50
2018-04-16T00:45:48.933Z,2.90
2018-04-16T00:48:22.939Z,3.30
2018-04-16T00:50:56.144Z,3.40
2018-04-16T00:53:29.348Z,3.53
2018-04-16T00:58:59.175Z,3.67
2018-04-16T01:01:33.176Z,6.27
2018-04-16T01:04:06.413Z,3.97
2018-04-16T01:06:39.678Z,3.63
2018-04-16T01:09:13.592Z,3.07
2018-04-16T01:11:47.518Z,3.40
2018-04-16T01:14:20.829Z,3.30
2018-04-16T01:16:54.077Z,3.87
2018-04-16T01:19:27.356Z,3.47
2018-04-16T01:22:00.655Z,3.87
2018-04-16T01:24:33.995Z,3.87
2018-04-16T01:27:07.268Z,3.53
2018-04-16T01:29:41.375Z,4.00
2018-04-16T01:32:14.571Z,4.07
2018-04-16T01:34:47.816Z,4.40
2018-04-16T01:37:20.904Z,3.30
2018-04-16T01:39:54.144Z,4.03
2018-04-16T01:42:27.488Z,3.60
2018-04-16T01:45:00.651Z,4.40
2018-04-16T01:47:34.745Z,4.27
2018-04-16T01:50:08.084Z,4.57
2018-04-16T01:52:41.275Z,3.90
2018-04-16T01:55:15.187Z,3.70
2018-04-16T01:57:48.436Z,3.37
2018-04-16T02:00:21.684Z,3.77
2018-04-16T02:02:54.953Z,3.93
2018-04-16T02:05:29.010Z,4.10
2018-04-16T02:08:02.356Z,3.33
2018-04-16T02:10:36.296Z,3.97
2018-04-16T02:13:09.440Z,4.20
2018-04-16T02:15:42.643Z,4.00
2018-04-16T02:18:15.832Z,3.77
2018-04-16T02:23:46.736Z,4.10
2018-04-16T02:26:19.976Z,3.63
2018-04-16T02:28:53.294Z,3.60
2018-04-16T02:31:27.252Z,3.40
2018-04-16T02:34:00.475Z,3.63
2018-04-16T02:36:33.661Z,4.87
2018-04-16T02:39:06.869Z,4.13
2018-04-16T02:41:40.241Z,3.70
2018-04-16T02:47:14.006Z,3.33
2018-04-16T02:49:48.004Z,2.80
2018-04-16T02:52:21.292Z,3.90
2018-04-16T02:54:54.593Z,3.23
2018-04-16T02:57:27.831Z,3.80
2018-04-16T03:00:00.969Z,3.80
2018-04-16T03:02:34.159Z,3.60
2018-04-16T03:08:09.175Z,5.53
2018-04-16T03:10:52.479Z,3.67
2018-04-16T03:13:26.529Z,4.50
2018-04-16T03:19:00.360Z,4.70
2018-04-16T03:21:33.666Z,4.17
2018-04-16T03:24:06.844Z,4.60
2018-04-16T03:26:39.988Z,4.00
2018-04-16T03:29:13.231Z,4.83
2018-04-16T03:31:46.389Z,4.63
2018-04-16T03:37:19.928Z,3.87
2018-04-16T03:39:53.893Z,4.80
2018-04-16T03:42:27.176Z,4.20
2018-04-16T03:45:00.505Z,3.73
2018-04-16T03:47:33.768Z,3.63
2018-04-16T03:50:07.005Z,4.20
2018-04-16T03:52:40.945Z,4.80
2018-04-16T03:55:14.262Z,6.30
2018-04-16T03:57:41.765Z,5.73
2018-04-16T04:00:10.053Z,5.77
2018-04-16T04:02:38.370Z,5.17
2018-04-16T04:05:05.889Z,4.27
2018-04-16T04:07:33.408Z,4.63
2018-04-16T04:10:00.953Z,4.70
2018-04-16T04:12:28.465Z,4.07
2018-04-16T04:14:56.853Z,3.70
2018-04-16T04:17:24.374Z,4.70
2018-04-16T04:19:52.010Z,4.60
2018-04-16T04:22:19.524Z,4.33
2018-04-16T04:24:59.923Z,3.83
2018-04-16T04:27:39.210Z,3.87
2018-04-16T04:30:18.663Z,3.80
2018-04-16T04:32:46.949Z,4.97
2018-04-16T04:35:15.257Z,5.27
2018-04-16T04:37:42.773Z,5.57
2018-04-16T04:40:11.076Z,5.83
2018-04-16T04:42:38.591Z,4.80
2018-04-16T04:45:06.123Z,5.10
2018-04-16T04:47:33.641Z,5.20
2018-04-16T04:50:01.949Z,4.70
2018-04-16T04:52:29.470Z,4.97
2018-04-16T04:54:56.989Z,5.87
2018-04-16T04:57:24.538Z,4.70
2018-04-16T04:59:52.057Z,4.10
2018-04-16T05:02:20.385Z,5.90
2018-04-16T05:04:47.933Z,7.53
2018-04-16T05:07:15.479Z,5.40
2018-04-16T05:09:43.057Z,5.70
2018-04-16T05:12:10.621Z,6.03
2018-04-16T05:14:38.545Z,5.70
2018-04-16T05:17:06.150Z,5.10
2018-04-16T05:19:33.669Z,5.03
2018-04-16T05:22:01.995Z,4.27
2018-04-16T05:24:29.513Z,5.47
2018-04-16T05:26:57.828Z,5.23
2018-04-16T05:29:25.349Z,6.77
2018-04-16T05:31:53.634Z,6.77
2018-04-16T05:34:21.942Z,6.07
2018-04-16T05:36:49.463Z,4.50
2018-04-16T05:39:17.004Z,5.47
2018-04-16T05:41:44.520Z,4.63
2018-04-16T05:44:12.088Z,5.47
2018-04-16T05:46:39.662Z,4.60
2018-04-16T05:49:07.208Z,5.30
2018-04-16T05:51:34.734Z,5.87
2018-04-16T05:54:03.055Z,4.63
2018-04-16T05:56:30.568Z,4.17
2018-04-16T05:58:58.856Z,3.83
2018-04-16T06:01:27.158Z,3.97
2018-04-16T06:03:54.683Z,4.00
2018-04-16T06:06:22.218Z,3.73
2018-04-16T06:08:49.737Z,3.90
2018-04-16T06:11:17.320Z,4.50
2018-04-16T06:13:44.836Z,3.77
2018-04-16T06:16:13.142Z,3.97
2018-04-16T06:18:40.661Z,6.33
2018-04-16T06:21:08.201Z,5.10
2018-04-16T06:23:35.712Z,7.00
2018-04-16T06:26:03.253Z,5.90
2018-04-16T06:28:31.573Z,4.47
2018-04-16T06:30:59.124Z,4.73
2018-04-16T06:33:26.703Z,3.50
2018-04-16T06:35:54.220Z,4.73
2018-04-16T06:38:22.525Z,4.57
2018-04-16T06:40:50.051Z,6.10
2018-04-16T06:43:17.600Z,6.57
2018-04-16T06:45:45.112Z,5.80
2018-04-16T06:48:12.692Z,5.27
2018-04-16T06:50:40.208Z,4.40
2018-04-16T06:53:08.521Z,4.70
2018-04-16T06:55:36.047Z,6.37
2018-04-16T06:58:04.369Z,3.60
2018-04-16T07:00:31.955Z,3.93
2018-04-16T07:02:59.512Z,4.53
2018-04-16T07:05:27.042Z,4.90
2018-04-16T07:07:54.587Z,3.77
2018-04-16T07:10:22.892Z,4.50
2018-04-16T07:12:50.432Z,4.73
2018-04-16T07:15:17.953Z,4.80
2018-04-16T07:17:45.581Z,4.87
2018-04-16T07:20:13.104Z,4.07
2018-04-16T07:22:41.427Z,4.77
2018-04-16T07:25:08.939Z,5.57
2018-04-16T07:27:37.220Z,5.00
2018-04-16T07:30:05.521Z,4.90
2018-04-16T07:32:33.043Z,5.03
2018-04-16T07:35:01.379Z,5.97
2018-04-16T07:37:28.896Z,5.20
2018-04-16T07:39:57.196Z,7.13
2018-04-16T07:42:24.721Z,6.20
2018-04-16T07:44:52.261Z,6.17
2018-04-16T07:47:19.777Z,5.67
2018-04-16T07:49:47.358Z,6.90
2018-04-16T07:52:14.880Z,4.90
2018-04-16T07:54:43.184Z,6.03
2018-04-16T07:57:10.700Z,5.60
2018-04-16T07:59:38.293Z,6.70
2018-04-16T08:02:06.653Z,6.50
2018-04-16T08:04:34.976Z,5.20
2018-04-16T08:07:02.497Z,5.47
2018-04-16T08:09:30.795Z,5.50
2018-04-16T08:11:59.068Z,6.00
2018-04-16T08:14:27.380Z,6.37
2018-04-16T08:16:54.945Z,6.63
2018-04-16T08:19:22.535Z,7.13
2018-04-16T08:21:50.017Z,6.70
2018-04-16T08:24:18.345Z,7.43
2018-04-16T08:26:45.860Z,8.13
2018-04-16T08:29:14.150Z,8.07
2018-04-16T08:31:41.701Z,8.37
2018-04-16T08:34:09.979Z,7.63
2018-04-16T08:36:38.282Z,8.10
2018-04-16T08:39:06.533Z,7.20
2018-04-16T08:41:34.832Z,8.70
2018-04-16T08:44:02.360Z,8.47
2018-04-16T08:46:31.401Z,6.53
2018-04-16T08:48:58.912Z,6.33
2018-04-16T08:51:26.448Z,6.17
2018-04-16T08:53:53.963Z,6.63
2018-04-16T08:56:21.497Z,5.80
2018-04-16T08:58:49.008Z,4.93
2018-04-16T09:01:16.542Z,4.63
2018-04-16T09:03:44.820Z,3.63
2018-04-16T09:06:12.361Z,4.97
2018-04-16T09:08:39.883Z,5.03
2018-04-16T09:11:07.429Z,3.70
2018-04-16T09:13:34.951Z,3.87
2018-04-16T09:16:03.234Z,3.90
2018-04-16T09:18:31.542Z,3.90
2018-04-16T09:20:59.056Z,4.50
2018-04-16T09:23:26.589Z,6.13
2018-04-16T09:25:54.104Z,5.30
2018-04-16T09:28:21.640Z,4.50
2018-04-16T09:30:49.938Z,3.80
2018-04-16T09:33:18.242Z,3.43
2018-04-16T09:35:45.814Z,3.00
2018-04-16T09:38:13.374Z,2.33
2018-04-16T09:40:40.893Z,2.67
2018-04-16T09:43:09.196Z,2.77
2018-04-16T09:45:36.712Z,2.70
2018-04-16T09:48:04.247Z,2.57
2018-04-16T09:50:31.767Z,2.30
2018-04-16T09:52:59.313Z,1.80
2018-04-16T09:55:27.593Z,1.40
2018-04-16T09:57:55.965Z,2.10
2018-04-16T10:00:28.282Z,2.07
2018-04-16T10:02:57.785Z,2.70
2018-04-16T10:05:25.325Z,1.93
2018-04-16T10:07:52.913Z,1.50
2018-04-16T10:10:20.451Z,2.00
2018-04-16T10:12:48.037Z,1.33
2018-04-16T10:15:15.574Z,1.73
2018-04-16T10:17:43.100Z,2.10
2018-04-16T10:20:10.636Z,1.93
2018-04-16T10:22:38.152Z,2.30
2018-04-16T10:25:05.707Z,2.90
2018-04-16T10:27:33.990Z,2.10
2018-04-16T10:30:02.302Z,2.67
2018-04-16T10:32:29.867Z,2.00
2018-04-16T10:34:57.356Z,1.70
2018-04-16T10:37:24.989Z,2.47
2018-04-16T10:39:52.499Z,1.90
2018-04-16T10:42:20.038Z,2.97
2018-04-16T10:44:47.556Z,1.70
2018-04-16T10:47:15.125Z,1.70
2018-04-16T10:49:42.733Z,2.47
2018-04-16T10:52:10.245Z,2.87
2018-04-16T10:54:37.757Z,2.80
2018-04-16T10:57:05.364Z,2.80
2018-04-16T10:59:32.880Z,3.43
2018-04-16T11:02:00.419Z,3.50
2018-04-16T11:04:27.937Z,3.33
2018-04-16T11:06:55.481Z,3.50
2018-04-16T11:09:23.765Z,3.23
2018-04-16T11:11:51.311Z,3.20
2018-04-16T11:14:19.601Z,2.80
2018-04-16T11:16:47.902Z,3.10
2018-04-16T11:19:15.431Z,2.83
2018-04-16T11:21:43.851Z,3.03
2018-04-16T11:24:11.409Z,3.53
2018-04-16T11:26:38.960Z,2.50
2018-04-16T11:29:06.471Z,2.40
2018-04-16T11:31:33.987Z,2.57
2018-04-16T11:34:01.521Z,3.63
2018-04-16T11:36:29.062Z,3.83
2018-04-16T11:38:56.609Z,3.33
2018-04-16T11:41:24.232Z,3.00
2018-04-16T11:43:51.789Z,2.83
2018-04-16T11:46:19.309Z,2.67
2018-04-16T11:48:46.851Z,2.20
2018-04-16T11:51:14.365Z,1.50
2018-04-16T11:53:41.901Z,1.37
2018-04-16T11:56:10.190Z,1.73
2018-04-16T11:58:38.493Z,2.17
2018-04-16T12:01:06.017Z,1.70
2018-04-16T12:03:34.316Z,1.93
2018-04-16T12:06:01.832Z,1.70
2018-04-16T12:08:29.371Z,1.80
2018-04-16T12:10:56.885Z,1.40
2018-04-16T12:13:25.197Z,1.10
2018-04-16T12:15:52.716Z,2.03
2018-04-16T12:18:21.037Z,1.80
2018-04-16T12:20:48.556Z,1.37
2018-04-16T12:23:16.845Z,1.13
2018-04-16T12:25:45.146Z,1.37
2018-04-16T12:28:12.664Z,1.33
2018-04-16T12:30:40.211Z,1.60
2018-04-16T12:33:07.748Z,1.50
2018-04-16T12:35:35.297Z,1.43
2018-04-16T12:38:02.856Z,1.20
2018-04-16T12:40:30.393Z,1.53
2018-04-16T12:42:57.922Z,2.43
2018-04-16T12:45:25.556Z,2.07
2018-04-16T12:47:53.075Z,2.80
2018-04-16T12:50:21.374Z,6.23
2018-04-16T12:52:48.895Z,6.50
2018-04-16T12:55:17.213Z,7.17
2018-04-16T12:57:44.737Z,9.87
2018-04-16T13:00:13.050Z,10.70
2018-04-16T13:02:40.620Z,13.20
2018-04-16T13:05:08.182Z,10.97
2018-04-16T13:07:35.704Z,12.80
2018-04-16T13:10:03.990Z,12.70
2018-04-16T13:12:31.532Z,11.77
2018-04-16T13:14:59.825Z,10.17
2018-04-16T13:17:28.136Z,10.40
2018-04-16T13:19:55.656Z,11.97
2018-04-16T13:22:23.969Z,13.23
2018-04-16T13:24:51.491Z,9.10
2018-04-16T13:27:19.795Z,8.60
2018-04-16T13:29:47.312Z,5.50
2018-04-16T13:32:14.931Z,6.33
2018-04-16T13:34:42.447Z,8.73
2018-04-16T13:37:09.985Z,3.80
2018-04-16T13:39:37.504Z,1.33
2018-04-16T13:42:05.042Z,1.07
2018-04-16T13:44:33.361Z,1.30
2018-04-16T13:47:00.914Z,1.30
2018-04-16T13:49:28.480Z,1.23
2018-04-16T13:51:56.012Z,0.77
2018-04-16T13:54:24.296Z,0.90
2018-04-16T13:56:51.835Z,1.03
2018-04-16T13:59:19.350Z,1.20
2018-04-16T14:01:46.868Z,1.10
2018-04-16T14:04:15.167Z,0.80
2018-04-16T14:06:42.683Z,1.00
2018-04-16T14:09:10.303Z,1.13
2018-04-16T14:11:37.821Z,0.83
2018-04-16T14:14:06.129Z,0.90
2018-04-16T14:16:33.648Z,1.30
2018-04-16T14:19:01.193Z,1.40
2018-04-16T14:21:28.713Z,1.10
2018-04-16T14:23:56.257Z,1.00
2018-04-16T14:26:23.773Z,1.10
2018-04-16T14:28:51.316Z,1.40
2018-04-16T14:31:18.827Z,2.33
2018-04-16T14:33:47.128Z,1.20
2018-04-16T14:36:14.650Z,1.20
2018-04-16T14:38:42.205Z,0.97
2018-04-16T14:41:09.819Z,0.80
2018-04-16T14:43:37.336Z,0.93
2018-04-16T14:46:04.884Z,0.90
2018-04-16T14:48:32.408Z,1.30
2018-04-16T14:50:59.941Z,0.90
2018-04-16T14:53:27.530Z,1.10
2018-04-16T14:55:55.061Z,0.90
2018-04-16T14:58:23.336Z,1.67
2018-04-16T15:00:51.643Z,1.03
2018-04-16T15:03:19.160Z,1.27
2018-04-16T15:05:47.465Z,1.17
2018-04-16T15:08:14.993Z,1.00
2018-04-16T15:10:42.533Z,1.50
2018-04-16T15:13:10.049Z,3.00
2018-04-16T15:15:37.583Z,1.83
2018-04-16T15:18:05.100Z,3.33
2018-04-16T15:20:32.621Z,1.60
2018-04-16T15:23:00.925Z,1.40
2018-04-16T15:25:28.446Z,1.10
2018-04-16T15:27:56.772Z,1.20
2018-04-16T15:30:24.284Z,0.97
2018-04-16T15:32:52.592Z,1.20
2018-04-16T15:35:20.172Z,1.67
2018-04-16T15:37:47.712Z,1.40
2018-04-16T15:40:15.229Z,1.33
2018-04-16T15:42:42.765Z,1.47
2018-04-16T15:45:10.290Z,1.40
2018-04-16T15:47:38.695Z,1.40
2018-04-16T15:50:06.215Z,1.33
2018-04-16T15:52:34.524Z,1.30
2018-04-16T15:55:02.046Z,1.40
2018-04-16T15:57:31.445Z,1.50
2018-04-16T15:59:59.903Z,1.27
2018-04-16T16:02:27.493Z,1.23
2018-04-16T16:04:55.008Z,1.00
2018-04-16T16:07:22.546Z,1.23
2018-04-16T16:09:50.328Z,1.40
2018-04-16T16:12:20.046Z,1.37
2018-04-16T16:14:47.653Z,1.33
2018-04-16T16:17:15.169Z,1.47
2018-04-16T16:19:42.717Z,1.10
2018-04-16T16:22:10.236Z,1.20
2018-04-16T16:24:37.776Z,1.33
2018-04-16T16:27:05.302Z,1.37
2018-04-16T16:29:32.868Z,0.97
2018-04-16T16:32:00.385Z,1.60
2018-04-16T16:34:28.697Z,1.27
2018-04-16T16:36:56.231Z,1.27
2018-04-16T16:39:24.532Z,1.50
2018-04-16T16:41:52.052Z,1.73
2018-04-16T16:44:19.589Z,5.23
2018-04-16T16:46:47.128Z,1.70
2018-04-16T16:49:14.672Z,0.90
2018-04-16T16:51:42.188Z,1.13
2018-04-16T16:54:09.746Z,1.20
2018-04-16T16:56:37.269Z,1.00
2018-04-16T16:59:04.789Z,1.17
2018-04-16T17:04:07.208Z,1.10
2018-04-16T17:06:34.740Z,1.07
2018-04-16T17:09:02.258Z,1.53
2018-04-16T17:11:29.805Z,0.83
2018-04-16T17:13:57.372Z,1.00
2018-04-16T17:16:24.910Z,1.00
2018-04-16T17:18:52.814Z,1.37
2018-04-16T17:21:20.354Z,1.30
2018-04-16T17:23:47.878Z,1.27
2018-04-16T17:26:16.199Z,0.80
2018-04-16T17:28:44.552Z,1.27
2018-04-16T17:31:12.072Z,0.83
2018-04-16T17:33:39.624Z,2.40
2018-04-16T17:36:07.137Z,1.87
2018-04-16T17:38:34.673Z,1.77
2018-04-16T17:41:02.198Z,1.50
2018-04-16T17:43:29.731Z,2.23
2018-04-16T17:45:57.249Z,1.50
2018-04-16T17:48:24.867Z,1.20
2018-04-16T17:50:52.397Z,1.30
2018-04-16T17:53:20.701Z,1.53
2018-04-16T17:55:48.216Z,1.57
2018-04-16T17:58:15.753Z,0.97
2018-04-16T18:00:43.270Z,1.10
2018-04-16T18:03:10.803Z,1.20
2018-04-16T18:05:38.332Z,1.33
2018-04-16T18:08:05.873Z,2.03
2018-04-16T18:10:33.393Z,1.30
2018-04-16T18:13:01.698Z,1.57
2018-04-16T18:15:29.264Z,2.30
2018-04-16T18:17:56.824Z,1.80
2018-04-16T18:20:24.385Z,2.00
2018-04-16T18:22:51.900Z,1.80
2018-04-16T18:25:19.437Z,2.20
2018-04-16T18:27:46.953Z,2.10
2018-04-16T18:30:14.489Z,2.10
2018-04-16T18:32:42.004Z,2.20
2018-04-16T18:35:09.556Z,2.37
2018-04-16T18:37:37.076Z,1.87
2018-04-16T18:40:09.341Z,2.27
2018-04-16T18:42:36.856Z,2.30
2018-04-16T18:45:04.397Z,3.43
2018-04-16T18:47:31.917Z,2.40
2018-04-16T18:49:59.458Z,2.20
2018-04-16T18:52:26.982Z,2.27
2018-04-16T18:54:54.523Z,2.27
2018-04-16T18:57:22.806Z,2.17
2018-04-16T18:59:51.119Z,1.77
2018-04-16T19:02:18.643Z,1.97
2018-04-16T19:04:46.950Z,1.80
2018-04-16T19:07:14.469Z,1.80
2018-04-16T19:09:41.984Z,1.80
2018-04-16T19:12:09.526Z,1.87
2018-04-16T19:14:37.042Z,1.90
2018-04-16T19:17:04.661Z,2.33
2018-04-16T19:19:32.219Z,2.47
2018-04-16T19:21:59.780Z,2.47
2018-04-16T19:24:27.292Z,1.53
2018-04-16T19:27:01.426Z,2.20
2018-04-16T19:29:29.706Z,2.40
2018-04-16T19:31:57.295Z,3.47
2018-04-16T19:34:30.448Z,3.00
2018-04-16T19:36:58.143Z,3.60
2018-04-16T19:39:25.910Z,2.70
2018-04-16T19:41:59.185Z,2.93
2018-04-16T19:44:28.852Z,2.30
2018-04-16T19:50:01.850Z,2.33
2018-04-16T19:52:31.162Z,2.40
2018-04-16T19:55:18.756Z,2.53
2018-04-16T19:57:53.896Z,3.20
2018-04-16T20:09:06.750Z,3.03
2018-04-16T20:11:35.152Z,2.83
2018-04-16T20:14:02.668Z,2.80
2018-04-16T20:16:30.184Z,3.43
2018-04-16T20:18:57.726Z,2.80
2018-04-16T20:21:25.300Z,2.87
2018-04-16T20:23:52.836Z,4.30
2018-04-16T20:26:21.117Z,3.77
2018-04-16T20:28:48.653Z,3.43
2018-04-16T20:31:16.173Z,3.47
2018-04-16T20:33:43.718Z,3.73
2018-04-16T20:36:11.228Z,3.30
2018-04-16T20:38:39.528Z,2.87
2018-04-16T20:41:07.808Z,3.23
2018-04-16T20:43:36.104Z,3.33
2018-04-16T20:46:03.621Z,2.93
2018-04-16T20:48:31.156Z,3.07
2018-04-16T20:50:58.680Z,3.60
2018-04-16T20:53:26.237Z,3.70
2018-04-16T20:55:53.772Z,2.80
2018-04-16T20:58:22.065Z,3.30
2018-04-16T21:00:50.364Z,3.90
2018-04-16T21:03:17.879Z,3.57
2018-04-16T21:05:45.472Z,3.50
2018-04-16T21:10:46.099Z,4.10
2018-04-16T21:13:13.677Z,3.60
2018-04-16T21:15:42.043Z,3.40
2018-04-16T21:18:10.384Z,3.80
2018-04-16T21:20:37.990Z,4.17
2018-04-16T21:23:06.329Z,3.63
2018-04-16T21:25:33.903Z,3.50
2018-04-16T21:28:01.496Z,3.77
2018-04-16T21:30:29.833Z,3.57
2018-04-16T21:32:57.429Z,4.00
2018-04-16T21:35:25.857Z,3.53
2018-04-16T21:37:53.468Z,3.83
2018-04-16T21:40:21.041Z,3.60
2018-04-16T21:42:49.396Z,3.03
2018-04-16T21:45:17.729Z,3.57
2018-04-16T21:47:45.330Z,3.23
2018-04-16T21:50:12.908Z,3.33
2018-04-16T21:52:40.572Z,4.60
2018-04-16T21:55:08.144Z,3.20
2018-04-16T21:57:36.500Z,3.77
2018-04-16T22:00:04.077Z,4.10
2018-04-16T22:02:31.667Z,3.80
2018-04-16T22:04:59.237Z,3.20
2018-04-16T22:07:26.829Z,3.70
2018-04-16T22:09:54.396Z,4.23
2018-04-16T22:12:21.988Z,3.00
2018-04-16T22:14:49.563Z,3.50
2018-04-16T22:17:17.931Z,3.77
2018-04-16T22:19:46.260Z,3.60
2018-04-16T22:22:13.857Z,3.77
2018-04-16T22:24:42.973Z,3.60
2018-04-16T22:27:11.308Z,4.10
2018-04-16T22:29:38.907Z,3.10
2018-04-16T22:32:06.476Z,3.63
2018-04-16T22:34:34.827Z,4.07
2018-04-16T22:37:02.401Z,3.33
2018-04-16T22:39:29.993Z,3.80
2018-04-16T22:41:58.320Z,3.40
2018-04-16T22:44:26.016Z,3.70
2018-04-16T22:46:53.588Z,3.37
2018-04-16T22:49:21.958Z,3.23
2018-04-16T22:51:49.532Z,3.83
2018-04-16T22:54:17.153Z,3.80
2018-04-16T22:56:44.723Z,4.00
2018-04-16T22:59:12.310Z,3.80
2018-04-16T23:01:40.648Z,4.10
2018-04-16T23:04:08.240Z,4.50
2018-04-16T23:06:36.578Z,4.40
2018-04-16T23:09:04.170Z,4.63
2018-04-16T23:11:31.757Z,4.13
2018-04-16T23:14:00.125Z,4.40
2018-04-16T23:16:27.692Z,4.40
2018-04-16T23:18:55.295Z,5.13
2018-04-16T23:21:22.876Z,4.10
2018-04-16T23:23:50.483Z,4.00
2018-04-16T23:26:18.078Z,4.17
2018-04-16T23:28:45.648Z,3.47
2018-04-16T23:31:13.270Z,4.10
2018-04-16T23:33:40.841Z,4.33
2018-04-16T23:36:09.253Z,4.00
2018-04-16T23:38:37.559Z,4.60
2018-04-16T23:41:05.149Z,3.80
2018-04-16T23:43:33.486Z,4.00
2018-04-16T23:46:01.079Z,5.00
2018-04-16T23:48:28.835Z,4.50
2018-04-16T23:50:56.428Z,4.80
2018-04-16T23:53:24.765Z,3.97
2018-04-16T23:55:52.366Z,5.30
2018-04-16T23:58:19.936Z,4.80
